createdAt,value
2022-12-18T00:01:34.057Z,5.20
2022-12-18T00:04:01.989Z,5.10
2022-12-18T00:06:29.443Z,5.10
2022-12-18T00:08:56.963Z,5.10
2022-12-18T00:11:25.233Z,5.00
2022-12-18T00:13:52.206Z,5.00
2022-12-18T00:16:23.355Z,4.90
2022-12-18T00:18:51.093Z,4.80
2022-12-18T00:21:18.263Z,4.80
2022-12-18T00:23:46.965Z,4.70
2022-12-18T00:26:16.136Z,4.70
2022-12-18T00:28:43.576Z,4.60
2022-12-18T00:31:12.502Z,4.60
2022-12-18T00:33:39.721Z,4.50
2022-12-18T00:36:11.842Z,4.50
2022-12-18T00:38:39.702Z,4.60
2022-12-18T00:41:07.880Z,4.50
2022-12-18T00:43:34.737Z,4.50
2022-12-18T00:46:01.541Z,4.60
2022-12-18T00:48:28.397Z,4.60
2022-12-18T00:50:55.461Z,4.70
2022-12-18T00:53:22.334Z,4.80
2022-12-18T00:55:49.157Z,4.80
2022-12-18T00:58:16.933Z,4.80
2022-12-18T01:00:43.860Z,4.60
2022-12-18T01:03:11.013Z,4.50
2022-12-18T01:05:41.120Z,4.50
2022-12-18T01:08:08.083Z,4.60
2022-12-18T01:10:34.895Z,4.60
2022-12-18T01:13:01.725Z,4.60
2022-12-18T01:15:28.451Z,4.60
2022-12-18T01:17:55.167Z,4.60
2022-12-18T01:20:22.094Z,4.70
2022-12-18T01:22:48.890Z,4.70
2022-12-18T01:25:15.672Z,4.80
2022-12-18T01:27:42.496Z,4.90
2022-12-18T01:30:09.667Z,5.00
2022-12-18T01:32:36.589Z,5.10
2022-12-18T01:35:03.913Z,5.20
2022-12-18T01:37:30.652Z,5.20
2022-12-18T01:39:57.425Z,5.30
2022-12-18T01:42:24.250Z,5.30
2022-12-18T01:44:59.612Z,5.30
2022-12-18T01:47:28.006Z,5.30
2022-12-18T01:49:54.864Z,5.20
2022-12-18T01:52:21.881Z,5.20
2022-12-18T01:54:49.979Z,5.20
2022-12-18T01:57:16.728Z,5.10
2022-12-18T01:59:43.845Z,5.10
2022-12-18T02:02:10.745Z,5.20
2022-12-18T02:04:37.670Z,5.20
2022-12-18T02:07:16.261Z,5.30
2022-12-18T02:09:50.052Z,5.30
2022-12-18T02:12:21.610Z,5.30
2022-12-18T02:15:26.297Z,5.30
2022-12-18T02:17:58.700Z,5.40
2022-12-18T02:20:48.558Z,5.30
2022-12-18T02:23:33.498Z,5.40
2022-12-18T02:26:02.908Z,5.30
2022-12-18T02:28:31.688Z,5.40
2022-12-18T02:30:58.876Z,5.40
2022-12-18T02:33:25.611Z,5.40
2022-12-18T02:35:52.558Z,5.40
2022-12-18T02:38:19.291Z,5.40
2022-12-18T02:40:46.027Z,5.30
2022-12-18T02:43:14.731Z,5.20
2022-12-18T02:45:51.418Z,5.10
2022-12-18T02:48:19.730Z,5.10
2022-12-18T02:50:49.437Z,5.00
2022-12-18T02:53:23.196Z,4.90
2022-12-18T02:56:05.213Z,4.80
2022-12-18T02:58:38.758Z,4.60
2022-12-18T03:01:10.094Z,4.60
2022-12-18T03:03:42.861Z,4.50
2022-12-18T03:06:24.974Z,4.40
2022-12-18T03:08:54.170Z,4.30
2022-12-18T03:11:40.897Z,4.20
2022-12-18T03:14:07.857Z,4.10
2022-12-18T03:16:34.739Z,4.10
2022-12-18T03:19:12.992Z,4.10
2022-12-18T03:21:46.634Z,4.00
2022-12-18T03:24:13.395Z,4.00
2022-12-18T03:26:42.440Z,4.00
2022-12-18T03:29:14.071Z,4.00
2022-12-18T03:31:41.724Z,4.00
2022-12-18T03:34:13.781Z,4.00
2022-12-18T03:36:40.511Z,3.90
2022-12-18T03:39:07.304Z,3.90
2022-12-18T03:42:32.435Z,3.80
2022-12-18T03:45:00.795Z,3.80
2022-12-18T03:47:28.747Z,3.80
2022-12-18T03:50:28.183Z,3.70
2022-12-18T03:53:11.843Z,3.60
2022-12-18T03:55:38.572Z,3.60
2022-12-18T03:58:05.516Z,3.50
2022-12-18T04:00:32.287Z,3.50
2022-12-18T04:02:59.056Z,3.50
2022-12-18T04:05:26.321Z,3.50
2022-12-18T04:07:53.219Z,3.50
2022-12-18T04:10:20.041Z,3.40
2022-12-18T04:12:46.865Z,3.40
2022-12-18T04:15:14.034Z,3.50
2022-12-18T04:17:44.315Z,3.40
2022-12-18T04:20:11.405Z,3.40
2022-12-18T04:22:38.259Z,3.50
2022-12-18T04:25:05.751Z,3.50
2022-12-18T04:27:32.503Z,3.50
2022-12-18T04:29:59.297Z,3.60
2022-12-18T04:32:26.146Z,3.60
2022-12-18T04:34:52.884Z,3.60
2022-12-18T04:37:19.650Z,3.70
2022-12-18T04:39:46.406Z,3.70
2022-12-18T04:42:13.173Z,3.80
2022-12-18T04:44:39.937Z,3.90
2022-12-18T04:47:06.683Z,3.90
2022-12-18T04:49:33.434Z,3.90
2022-12-18T04:52:00.212Z,4.00
2022-12-18T04:54:27.014Z,4.00
2022-12-18T04:56:53.778Z,4.00
2022-12-18T04:59:21.929Z,4.00
2022-12-18T05:01:48.852Z,4.10
2022-12-18T05:04:15.755Z,4.10
2022-12-18T05:06:42.703Z,4.10
2022-12-18T05:09:09.461Z,4.10
2022-12-18T05:11:36.503Z,4.20
2022-12-18T05:14:03.308Z,4.20
2022-12-18T05:16:30.238Z,4.30
2022-12-18T05:18:57.067Z,4.30
2022-12-18T05:21:23.855Z,4.40
2022-12-18T05:23:50.673Z,4.40
2022-12-18T05:26:18.337Z,4.40
2022-12-18T05:28:45.193Z,4.50
2022-12-18T05:31:12.401Z,4.50
2022-12-18T05:33:39.777Z,4.50
2022-12-18T05:36:08.052Z,4.50
2022-12-18T05:38:36.307Z,4.50
2022-12-18T05:41:03.178Z,4.50
2022-12-18T05:43:30.709Z,4.60
2022-12-18T05:45:58.554Z,4.50
2022-12-18T05:48:25.457Z,4.50
2022-12-18T05:50:52.271Z,4.40
2022-12-18T05:53:20.351Z,4.30
2022-12-18T05:55:47.227Z,4.20
2022-12-18T05:58:14.376Z,4.10
2022-12-18T06:00:43.646Z,4.10
2022-12-18T06:03:11.010Z,4.00
2022-12-18T06:05:42.267Z,4.00
2022-12-18T06:08:09.149Z,3.90
2022-12-18T06:10:35.962Z,3.90
2022-12-18T06:13:02.799Z,3.80
2022-12-18T06:15:29.519Z,3.80
2022-12-18T06:17:56.266Z,3.90
2022-12-18T06:20:23.266Z,3.90
2022-12-18T06:22:49.994Z,3.90
2022-12-18T06:25:16.881Z,3.90
2022-12-18T06:27:43.837Z,3.80
2022-12-18T06:30:11.928Z,3.70
2022-12-18T06:32:39.454Z,3.70
2022-12-18T06:35:06.827Z,3.80
2022-12-18T06:37:33.678Z,3.90
2022-12-18T06:40:01.928Z,3.90
2022-12-18T06:42:29.695Z,4.00
2022-12-18T06:44:56.433Z,4.10
2022-12-18T06:47:23.133Z,4.10
2022-12-18T06:49:49.920Z,4.10
2022-12-18T06:52:16.681Z,4.10
2022-12-18T06:54:43.446Z,4.20
2022-12-18T06:57:10.186Z,4.20
2022-12-18T06:59:37.033Z,4.30
2022-12-18T07:02:03.908Z,4.40
2022-12-18T07:04:31.092Z,4.40
2022-12-18T07:06:58.381Z,4.40
2022-12-18T07:09:25.444Z,4.50
2022-12-18T07:11:52.935Z,4.50
2022-12-18T07:14:19.717Z,4.50
2022-12-18T07:16:46.576Z,4.50
2022-12-18T07:19:13.316Z,4.60
2022-12-18T07:21:40.106Z,4.50
2022-12-18T07:24:07.393Z,4.60
2022-12-18T07:26:34.199Z,4.70
2022-12-18T07:29:00.932Z,4.80
2022-12-18T07:31:27.813Z,4.80
2022-12-18T07:33:54.697Z,4.70
2022-12-18T07:36:21.508Z,4.80
2022-12-18T07:38:49.314Z,4.80
2022-12-18T07:41:16.274Z,4.90
2022-12-18T07:43:43.612Z,4.90
2022-12-18T07:46:10.748Z,4.80
2022-12-18T07:48:40.702Z,4.80
2022-12-18T07:51:07.665Z,4.70
2022-12-18T07:53:34.759Z,4.60
2022-12-18T07:56:27.231Z,4.40
2022-12-18T07:58:55.317Z,4.50
2022-12-18T08:01:22.238Z,4.20
2022-12-18T08:03:49.106Z,4.00
2022-12-18T08:06:18.377Z,4.00
2022-12-18T08:08:45.165Z,4.20
2022-12-18T08:11:11.917Z,4.40
2022-12-18T08:13:39.043Z,4.50
2022-12-18T08:16:07.439Z,4.70
2022-12-18T08:18:35.306Z,4.90
2022-12-18T08:21:16.360Z,5.00
2022-12-18T08:23:43.717Z,5.20
2022-12-18T08:26:14.456Z,5.30
2022-12-18T08:28:41.453Z,5.40
2022-12-18T08:31:08.632Z,5.50
2022-12-18T08:33:35.966Z,5.50
2022-12-18T08:36:03.248Z,5.50
2022-12-18T08:38:30.000Z,5.50
2022-12-18T08:41:07.826Z,5.20
2022-12-18T08:43:53.334Z,5.10
2022-12-18T08:46:20.933Z,5.30
2022-12-18T08:48:48.100Z,6.00
2022-12-18T08:51:16.753Z,6.80
2022-12-18T08:53:44.148Z,7.50
2022-12-18T08:56:11.186Z,8.20
2022-12-18T08:58:37.999Z,8.60
2022-12-18T09:01:05.911Z,9.30
2022-12-18T09:03:32.889Z,10.30
2022-12-18T09:06:00.402Z,11.30
2022-12-18T09:08:27.589Z,12.10
2022-12-18T09:10:54.392Z,12.50
2022-12-18T09:13:21.372Z,12.20
2022-12-18T09:15:52.979Z,11.50
2022-12-18T09:18:20.482Z,10.50
2022-12-18T09:20:47.561Z,9.50
2022-12-18T09:23:14.565Z,8.80
2022-12-18T09:25:41.727Z,8.20
2022-12-18T09:28:12.970Z,7.70
2022-12-18T09:30:40.946Z,7.30
2022-12-18T09:33:08.046Z,7.20
2022-12-18T09:35:40.836Z,7.50
2022-12-18T09:38:07.812Z,8.10
2022-12-18T09:40:37.177Z,8.20
2022-12-18T09:43:05.647Z,8.70
2022-12-18T09:45:43.342Z,9.00
2022-12-18T09:48:15.411Z,9.60
2022-12-18T09:50:42.763Z,10.50
2022-12-18T09:53:16.514Z,11.40
2022-12-18T09:55:44.347Z,12.40
2022-12-18T09:58:18.498Z,13.10
2022-12-18T10:00:45.393Z,13.20
2022-12-18T10:03:16.199Z,13.40
2022-12-18T10:06:02.794Z,13.50
2022-12-18T10:08:39.118Z,13.80
2022-12-18T10:11:18.371Z,14.10
2022-12-18T10:13:55.916Z,14.40
2022-12-18T10:16:42.935Z,14.90
2022-12-18T10:19:25.079Z,15.20
2022-12-18T10:22:09.066Z,15.50
2022-12-18T10:24:46.740Z,15.90
2022-12-18T10:27:18.226Z,15.80
2022-12-18T10:29:45.820Z,15.50
2022-12-18T10:32:19.784Z,15.50
2022-12-18T10:34:54.059Z,15.30
2022-12-18T10:37:26.715Z,15.20
2022-12-18T10:40:22.518Z,15.30
2022-12-18T10:43:07.417Z,15.50
2022-12-18T10:45:34.323Z,15.90
2022-12-18T10:48:01.235Z,16.10
2022-12-18T10:51:09.321Z,16.20
2022-12-18T10:53:31.771Z,16.40
2022-12-18T10:55:59.953Z,16.20
2022-12-18T10:58:30.931Z,15.90
2022-12-18T11:01:13.784Z,15.60
2022-12-18T11:03:48.357Z,15.40
2022-12-18T11:06:16.029Z,15.00
2022-12-18T11:08:44.084Z,15.00
2022-12-18T11:11:37.556Z,15.30
2022-12-18T11:14:04.965Z,15.20
2022-12-18T11:16:35.149Z,15.00
2022-12-18T11:19:23.585Z,14.80
2022-12-18T11:21:50.446Z,14.40
2022-12-18T11:24:22.065Z,14.20
2022-12-18T11:26:48.855Z,14.20
2022-12-18T11:29:19.167Z,14.00
2022-12-18T11:31:46.912Z,14.10
2022-12-18T11:34:30.876Z,14.30
2022-12-18T11:36:58.923Z,14.40
2022-12-18T11:39:33.415Z,14.40
2022-12-18T11:42:24.117Z,14.40
2022-12-18T11:45:00.740Z,14.30
2022-12-18T11:47:52.729Z,14.10
2022-12-18T11:50:32.606Z,13.80
2022-12-18T11:53:04.187Z,13.30
2022-12-18T11:55:50.851Z,12.90
2022-12-18T11:58:31.973Z,12.60
2022-12-18T12:01:21.661Z,12.20
2022-12-18T12:04:08.347Z,12.10
2022-12-18T12:07:16.793Z,11.30
2022-12-18T12:10:05.955Z,10.80
2022-12-18T12:12:48.991Z,10.20
2022-12-18T12:15:24.872Z,9.60
2022-12-18T12:18:11.144Z,9.00
2022-12-18T12:20:38.351Z,8.70
2022-12-18T12:23:33.016Z,8.50
2022-12-18T12:26:25.086Z,8.30
2022-12-18T12:29:10.466Z,8.20
2022-12-18T12:31:57.036Z,7.90
2022-12-18T12:34:32.664Z,7.80
2022-12-18T12:37:24.316Z,7.70
2022-12-18T12:39:51.090Z,7.80
2022-12-18T12:42:58.373Z,7.90
2022-12-18T12:45:40.216Z,8.00
2022-12-18T12:48:08.231Z,7.90
2022-12-18T12:50:35.445Z,7.80
2022-12-18T12:53:02.728Z,7.70
2022-12-18T12:55:30.753Z,7.70
2022-12-18T12:58:14.635Z,7.70
2022-12-18T13:00:57.842Z,7.70
2022-12-18T13:03:42.657Z,7.80
2022-12-18T13:06:24.700Z,7.80
2022-12-18T13:08:56.999Z,7.80
2022-12-18T13:12:00.396Z,7.70
2022-12-18T13:14:28.896Z,7.60
2022-12-18T13:17:30.009Z,7.60
2022-12-18T13:20:15.605Z,7.60
2022-12-18T13:22:43.935Z,7.40
2022-12-18T13:25:37.420Z,7.30
2022-12-18T13:28:16.811Z,7.40
2022-12-18T13:30:52.582Z,7.40
2022-12-18T13:33:46.905Z,7.30
2022-12-18T13:36:26.775Z,7.10
2022-12-18T13:39:17.312Z,6.90
2022-12-18T13:41:55.485Z,6.80
2022-12-18T13:44:38.523Z,6.70
2022-12-18T13:47:29.316Z,6.60
2022-12-18T13:49:56.148Z,6.50
2022-12-18T13:52:25.367Z,6.30
2022-12-18T13:54:53.722Z,6.30
2022-12-18T13:57:39.308Z,6.30
2022-12-18T14:00:24.722Z,6.40
2022-12-18T14:02:52.014Z,6.30
2022-12-18T14:05:30.744Z,6.30
2022-12-18T14:08:01.706Z,6.40
2022-12-18T14:10:48.605Z,6.30
2022-12-18T14:13:31.476Z,6.30
2022-12-18T14:15:58.682Z,6.30
2022-12-18T14:18:30.028Z,6.30
2022-12-18T14:20:58.645Z,6.20
2022-12-18T14:23:44.078Z,6.10
2022-12-18T14:26:28.202Z,6.00
2022-12-18T14:28:58.863Z,6.00
2022-12-18T14:31:27.123Z,6.10
2022-12-18T14:33:54.164Z,6.10
2022-12-18T14:36:30.024Z,6.00
2022-12-18T14:38:57.779Z,6.00
2022-12-18T14:41:24.772Z,6.00
2022-12-18T14:43:52.546Z,6.00
2022-12-18T14:46:34.237Z,5.90
2022-12-18T14:49:05.773Z,5.90
2022-12-18T14:51:34.102Z,5.80
2022-12-18T14:54:03.194Z,5.80
2022-12-18T14:56:37.008Z,5.70
2022-12-18T14:59:25.670Z,5.70
2022-12-18T15:01:52.489Z,5.60
2022-12-18T15:04:28.181Z,5.60
2022-12-18T15:07:11.205Z,5.50
2022-12-18T15:09:38.924Z,5.40
2022-12-18T15:12:43.748Z,5.40
2022-12-18T15:15:38.470Z,5.30
2022-12-18T15:18:12.919Z,5.30
2022-12-18T15:20:56.941Z,5.20
2022-12-18T15:23:37.041Z,5.20
2022-12-18T15:26:09.953Z,5.20
2022-12-18T15:28:49.652Z,5.10
2022-12-18T15:31:17.941Z,5.00
2022-12-18T15:33:47.124Z,5.00
2022-12-18T15:36:17.601Z,4.90
2022-12-18T15:38:49.024Z,4.70
2022-12-18T15:41:22.944Z,4.70
2022-12-18T15:43:52.290Z,4.60
2022-12-18T15:46:23.789Z,4.50
2022-12-18T15:48:55.401Z,4.50
2022-12-18T15:51:29.473Z,4.50
2022-12-18T15:53:57.638Z,4.40
2022-12-18T15:56:43.060Z,4.40
2022-12-18T15:59:16.798Z,4.40
2022-12-18T16:01:45.453Z,4.30
2022-12-18T16:04:13.334Z,4.30
2022-12-18T16:07:12.734Z,4.30
2022-12-18T16:09:27.300Z,4.30
2022-12-18T16:11:54.139Z,4.30
2022-12-18T16:14:27.654Z,4.30
2022-12-18T16:16:59.038Z,4.20
2022-12-18T16:19:25.939Z,4.20
2022-12-18T16:21:53.609Z,4.20
2022-12-18T16:24:28.348Z,4.20
2022-12-18T16:26:57.376Z,4.20
2022-12-18T16:29:27.838Z,4.20
2022-12-18T16:31:58.339Z,4.10
2022-12-18T16:34:29.778Z,4.10
2022-12-18T16:37:04.823Z,4.10
2022-12-18T16:39:33.059Z,4.00
2022-12-18T16:42:00.035Z,4.00
2022-12-18T16:44:28.781Z,4.00
2022-12-18T16:46:55.660Z,3.90
2022-12-18T16:49:22.586Z,3.80
2022-12-18T16:51:49.341Z,3.70
2022-12-18T16:54:19.153Z,3.70
2022-12-18T16:56:49.798Z,3.70
2022-12-18T16:59:16.687Z,3.60
2022-12-18T17:01:44.815Z,3.60
2022-12-18T17:04:11.903Z,3.50
2022-12-18T17:06:43.668Z,3.50
2022-12-18T17:09:15.328Z,3.50
2022-12-18T17:11:42.217Z,3.50
2022-12-18T17:14:14.931Z,3.50
2022-12-18T17:16:41.789Z,3.50
2022-12-18T17:19:13.576Z,3.40
2022-12-18T17:21:44.514Z,3.40
2022-12-18T17:24:11.341Z,3.40
2022-12-18T17:26:38.202Z,3.40
2022-12-18T17:29:05.095Z,3.30
2022-12-18T17:31:32.174Z,3.30
2022-12-18T17:33:59.245Z,3.30
2022-12-18T17:36:28.968Z,3.20
2022-12-18T17:38:57.175Z,3.20
2022-12-18T17:41:24.295Z,3.10
2022-12-18T17:43:54.426Z,3.10
2022-12-18T17:46:21.285Z,3.10
2022-12-18T17:48:48.167Z,3.10
2022-12-18T17:51:15.483Z,3.10
2022-12-18T17:53:42.792Z,3.00
2022-12-18T17:56:12.371Z,2.90
2022-12-18T17:58:39.347Z,2.90
2022-12-18T18:01:06.684Z,2.90
2022-12-18T18:03:33.972Z,2.90
2022-12-18T18:06:01.512Z,2.90
2022-12-18T18:08:28.653Z,2.90
2022-12-18T18:10:55.710Z,2.90
2022-12-18T18:13:46.909Z,2.90
2022-12-18T18:16:14.085Z,2.90
2022-12-18T18:18:40.895Z,2.80
2022-12-18T18:21:08.590Z,2.80
2022-12-18T18:23:36.068Z,2.80
2022-12-18T18:26:07.332Z,2.80
2022-12-18T18:28:34.412Z,2.90
2022-12-18T18:31:08.440Z,2.90
2022-12-18T18:33:35.452Z,2.80
2022-12-18T18:36:02.677Z,2.80
2022-12-18T18:38:29.464Z,2.80
2022-12-18T18:41:03.369Z,2.80
2022-12-18T18:43:30.614Z,2.80
2022-12-18T18:45:58.743Z,2.80
2022-12-18T18:48:26.645Z,2.80
2022-12-18T18:50:59.846Z,2.80
2022-12-18T18:53:26.704Z,2.80
2022-12-18T18:56:26.126Z,2.70
2022-12-18T18:58:40.269Z,2.70
2022-12-18T19:01:17.881Z,2.60
2022-12-18T19:03:45.041Z,2.60
2022-12-18T19:06:14.955Z,2.60
2022-12-18T19:08:42.041Z,2.60
2022-12-18T19:11:47.951Z,2.60
2022-12-18T19:14:15.178Z,2.60
2022-12-18T19:16:42.263Z,2.60
2022-12-18T19:19:09.325Z,2.50
2022-12-18T19:21:37.587Z,2.50
2022-12-18T19:24:04.737Z,2.50
2022-12-18T19:26:31.562Z,2.40
2022-12-18T19:29:03.247Z,2.40
2022-12-18T19:31:35.210Z,2.40
2022-12-18T19:34:03.401Z,2.40
2022-12-18T19:36:31.067Z,2.30
2022-12-18T19:38:59.146Z,2.30
2022-12-18T19:41:26.263Z,2.30
2022-12-18T19:43:58.494Z,2.20
2022-12-18T19:46:25.428Z,2.20
2022-12-18T19:48:52.376Z,2.20
2022-12-18T19:51:21.307Z,2.20
2022-12-18T19:53:48.774Z,2.20
2022-12-18T19:56:18.133Z,2.10
2022-12-18T19:58:45.435Z,2.10
2022-12-18T20:01:13.657Z,2.10
2022-12-18T20:03:44.259Z,2.10
2022-12-18T20:06:25.016Z,2.10
2022-12-18T20:08:52.170Z,2.10
2022-12-18T20:11:20.899Z,2.10
2022-12-18T20:13:47.795Z,2.10
2022-12-18T20:16:14.757Z,2.00
2022-12-18T20:18:41.626Z,2.00
2022-12-18T20:21:13.723Z,1.90
2022-12-18T20:23:41.265Z,1.90
2022-12-18T20:26:08.622Z,1.90
2022-12-18T20:28:35.578Z,1.90
2022-12-18T20:31:03.798Z,1.90
2022-12-18T20:33:30.951Z,1.80
2022-12-18T20:36:06.172Z,1.80
2022-12-18T20:38:33.899Z,1.80
2022-12-18T20:41:02.549Z,1.80
2022-12-18T20:43:29.991Z,1.80
2022-12-18T20:46:03.723Z,1.80
2022-12-18T20:48:30.852Z,1.80
2022-12-18T20:51:03.912Z,1.90
2022-12-18T20:53:31.006Z,1.90
2022-12-18T20:55:57.837Z,1.80
2022-12-18T20:58:24.947Z,1.80
2022-12-18T21:01:06.320Z,1.80
2022-12-18T21:03:33.222Z,1.80
2022-12-18T21:06:00.095Z,1.70
2022-12-18T21:08:26.866Z,1.70
2022-12-18T21:10:54.136Z,1.70
2022-12-18T21:13:22.617Z,1.70
2022-12-18T21:15:49.604Z,1.70
2022-12-18T21:18:16.367Z,1.60
2022-12-18T21:20:43.297Z,1.60
2022-12-18T21:23:16.227Z,1.60
2022-12-18T21:25:44.389Z,1.60
2022-12-18T21:28:12.456Z,1.50
2022-12-18T21:30:39.419Z,1.50
2022-12-18T21:33:06.354Z,1.50
2022-12-18T21:35:33.119Z,1.40
2022-12-18T21:37:59.896Z,1.40
2022-12-18T21:40:29.401Z,1.40
2022-12-18T21:43:25.268Z,1.40
2022-12-18T21:45:52.051Z,1.40
2022-12-18T21:48:18.860Z,1.40
2022-12-18T21:50:45.647Z,1.40
2022-12-18T21:53:12.419Z,1.30
2022-12-18T21:55:39.371Z,1.30
2022-12-18T21:58:06.091Z,1.20
2022-12-18T22:00:32.853Z,1.20
2022-12-18T22:03:17.058Z,1.20
2022-12-18T22:05:45.370Z,1.20
2022-12-18T22:08:13.683Z,1.20
2022-12-18T22:10:40.758Z,1.20
2022-12-18T22:13:08.027Z,1.10
2022-12-18T22:15:34.866Z,1.10
2022-12-18T22:18:02.026Z,1.10
2022-12-18T22:20:29.929Z,1.10
2022-12-18T22:22:57.191Z,1.10
2022-12-18T22:25:23.973Z,1.10
2022-12-18T22:28:23.255Z,1.00
2022-12-18T22:30:50.302Z,1.00
2022-12-18T22:33:21.701Z,1.10
2022-12-18T22:35:48.405Z,1.00
2022-12-18T22:38:15.120Z,1.00
2022-12-18T22:40:41.954Z,1.00
2022-12-18T22:43:08.818Z,1.00
2022-12-18T22:45:35.729Z,1.00
2022-12-18T22:48:05.545Z,1.00
2022-12-18T22:50:33.835Z,1.10
2022-12-18T22:53:00.637Z,1.10
2022-12-18T22:55:27.439Z,1.20
2022-12-18T22:57:54.154Z,1.20
2022-12-18T23:00:24.645Z,1.30
2022-12-18T23:03:00.386Z,1.30
2022-12-18T23:05:29.023Z,1.40
2022-12-18T23:07:55.901Z,1.50
2022-12-18T23:10:22.708Z,1.60
2022-12-18T23:12:49.465Z,1.70
2022-12-18T23:15:16.494Z,1.70
2022-12-18T23:17:45.675Z,1.60
2022-12-18T23:20:12.745Z,1.60
2022-12-18T23:22:39.587Z,1.60
2022-12-18T23:25:06.535Z,1.60
2022-12-18T23:27:33.350Z,1.60
2022-12-18T23:30:00.223Z,1.50
2022-12-18T23:32:27.003Z,1.50
2022-12-18T23:34:53.738Z,1.40
2022-12-18T23:37:49.915Z,1.40
2022-12-18T23:40:07.869Z,1.50
2022-12-18T23:42:34.630Z,1.50
2022-12-18T23:45:01.336Z,1.50
2022-12-18T23:47:32.160Z,1.50
2022-12-18T23:49:59.031Z,1.40
2022-12-18T23:52:26.049Z,1.40
2022-12-18T23:54:53.330Z,1.20
2022-12-18T23:57:20.336Z,0.90
2022-12-18T23:59:50.268Z,0.80
